Time;durP1;ratioP1;P1;durP2;ratioP2;P2;SDS_P1;SDS_P2;PMS_P1;PMS_P2;Temp;Humidity;BMP_temperature;BMP_pressure;BME280_temperature;BME280_humidity;BME280_pressure;Samples;Min_cycle;Max_cycle;Signal;HPM_P1;HPM_P2
2022/07/20 00:01:13;;;;;;;2.08;1.95;;;;;;;26.50;42.38;101136.88;5100670;28;20513;-73
2022/07/20 00:03:42;;;;;;;3.08;2.00;;;;;;;26.55;42.41;101141.34;5095899;28;20048;-73
2022/07/20 00:06:09;;;;;;;2.30;2.10;;;;;;;26.65;42.47;101137.88;5112917;28;20494;-73
2022/07/20 00:11:29;;;;;;;3.58;1.92;;;;;;;26.61;42.69;101137.03;5073320;28;20056;-73
2022/07/20 00:14:00;;;;;;;2.70;1.80;;;;;;;26.52;42.41;101139.28;5110670;28;20043;-73
2022/07/20 00:16:32;;;;;;;4.63;2.25;;;;;;;26.56;42.12;101142.94;5074400;28;20052;-73
2022/07/20 00:19:00;;;;;;;1.98;1.80;;;;;;;26.47;42.31;101137.59;5109930;28;20043;-73
2022/07/20 00:21:31;;;;;;;3.38;1.77;;;;;;;26.40;42.43;101129.06;5100812;28;20510;-73
2022/07/20 00:24:00;;;;;;;2.80;1.83;;;;;;;26.27;43.12;101129.28;5094414;28;20051;-73
2022/07/20 00:26:28;;;;;;;4.63;1.88;;;;;;;26.12;43.77;101130.19;5092660;28;20044;-73
2022/07/20 00:28:56;;;;;;;2.17;1.85;;;;;;;26.09;44.41;101131.75;5104788;28;20051;-73
2022/07/20 00:31:24;;;;;;;2.42;2.13;;;;;;;26.03;44.27;101127.63;5111941;28;20521;-73
2022/07/20 00:33:52;;;;;;;2.47;1.77;;;;;;;26.06;43.72;101126.06;5112251;28;20055;-73
2022/07/20 00:36:20;;;;;;;1.98;1.70;;;;;;;26.05;43.69;101136.47;5097603;28;20051;-73
2022/07/20 00:38:48;;;;;;;2.47;2.13;;;;;;;25.92;44.24;101127.44;5112060;28;20394;-73
2022/07/20 00:41:17;;;;;;;3.03;1.67;;;;;;;25.89;43.97;101134.59;5112285;28;20047;-73
2022/07/20 00:44:00;;;;;;;2.90;2.03;;;;;;;25.86;44.12;101137.34;5111720;28;20048;-72
2022/07/20 00:46:30;;;;;;;2.17;1.88;;;;;;;25.85;44.18;101138.53;5094089;28;20058;-73
2022/07/20 00:48:58;;;;;;;2.20;1.98;;;;;;;25.97;43.94;101134.72;5094098;28;20048;-73
2022/07/20 00:51:26;;;;;;;2.55;1.92;;;;;;;25.95;43.88;101126.69;5081262;28;21928;-73
2022/07/20 00:53:55;;;;;;;2.00;1.88;;;;;;;26.09;43.73;101128.16;5091325;28;20052;-73
2022/07/20 00:56:24;;;;;;;1.90;1.80;;;;;;;25.96;44.42;101128.31;5109111;28;20044;-73
2022/07/20 00:58:52;;;;;;;4.53;2.17;;;;;;;25.88;44.47;101129.38;5112467;28;20043;-73
2022/07/20 01:01:20;;;;;;;5.95;2.20;;;;;;;25.76;44.71;101136.75;5112104;28;20044;-73
2022/07/20 01:03:48;;;;;;;2.20;2.00;;;;;;;25.78;44.95;101130.78;5111474;28;20032;-73
2022/07/20 01:06:16;;;;;;;2.15;1.83;;;;;;;25.66;45.50;101122.56;5115664;28;20035;-73
2022/07/20 01:08:44;;;;;;;4.22;1.88;;;;;;;25.59;45.34;101117.63;5114946;28;20075;-73
2022/07/20 01:11:13;;;;;;;1.83;1.73;;;;;;;25.57;45.39;101108.78;5115573;28;20054;-73
2022/07/20 01:13:41;;;;;;;2.30;2.10;;;;;;;25.55;45.73;101117.56;5116350;28;20074;-73
2022/07/20 01:16:10;;;;;;;3.47;1.98;;;;;;;25.48;45.92;101108.97;5115267;28;20055;-73
2022/07/20 01:18:40;;;;;;;2.30;1.70;;;;;;;25.54;45.32;101106.72;5115020;28;20047;-73
2022/07/20 01:21:09;;;;;;;1.98;1.73;;;;;;;25.59;44.86;101109.22;5116042;28;20043;-73
2022/07/20 01:23:37;;;;;;;1.98;1.73;;;;;;;25.50;44.82;101117.81;5116005;28;20051;-73
2022/07/20 01:26:04;;;;;;;2.63;1.70;;;;;;;25.66;44.51;101111.34;5115866;28;20039;-73
2022/07/20 01:28:32;;;;;;;2.30;1.60;;;;;;;25.63;45.17;101112.91;5115266;28;20051;-73
2022/07/20 01:31:01;;;;;;;2.40;2.10;;;;;;;25.48;45.39;101114.59;5107705;28;20051;-73
2022/07/20 01:33:29;;;;;;;3.97;2.17;;;;;;;25.38;45.71;101112.38;5100001;28;20044;-73
2022/07/20 01:35:57;;;;;;;2.10;1.95;;;;;;;25.45;45.50;101118.13;5103118;28;20044;-73
2022/07/20 01:38:25;;;;;;;1.55;1.45;;;;;;;25.34;45.63;101112.31;5115493;28;20051;-73
2022/07/20 01:40:53;;;;;;;1.80;1.70;;;;;;;25.31;45.74;101122.25;5101644;28;20062;-73
2022/07/20 01:43:21;;;;;;;1.90;1.70;;;;;;;25.25;46.13;101122.91;5115698;28;20044;-73
2022/07/20 01:45:52;;;;;;;2.67;1.90;;;;;;;25.22;45.92;101128.06;5114070;28;20478;-73
2022/07/20 01:48:21;;;;;;;2.28;1.67;;;;;;;25.21;45.96;101122.84;5114498;28;20048;-73
2022/07/20 01:50:49;;;;;;;2.15;1.92;;;;;;;25.16;46.39;101123.94;5097066;28;20367;-73
2022/07/20 01:53:18;;;;;;;1.80;1.70;;;;;;;25.17;46.37;101117.16;5097177;28;20055;-73
2022/07/20 01:55:46;;;;;;;1.73;1.63;;;;;;;25.22;46.27;101122.47;5113456;28;20040;-74
2022/07/20 01:58:14;;;;;;;2.00;1.80;;;;;;;25.13;46.50;101116.31;5114431;28;20047;-73
2022/07/20 02:00:43;;;;;;;2.10;2.00;;;;;;;25.10;46.68;101119.81;5114647;28;20048;-73
2022/07/20 02:03:11;;;;;;;2.60;1.95;;;;;;;25.09;46.63;101121.00;5114911;28;20394;-73
2022/07/20 02:05:39;;;;;;;2.42;2.20;;;;;;;25.04;46.47;101112.88;5114042;28;20051;-73
2022/07/20 02:08:07;;;;;;;2.85;1.70;;;;;;;25.06;46.36;101119.75;5114117;28;20051;-74
2022/07/20 02:10:35;;;;;;;2.42;1.90;;;;;;;25.07;46.52;101112.97;5114407;28;20044;-73
2022/07/20 02:13:03;;;;;;;3.63;1.75;;;;;;;25.17;46.32;101117.16;5113566;28;20055;-73
2022/07/20 02:18:18;;;;;;;3.63;2.10;;;;;;;25.11;47.64;101115.03;5114364;28;20395;-73
2022/07/20 02:20:46;;;;;;;2.72;2.03;;;;;;;25.09;47.05;101121.00;5096307;28;20054;-74
2022/07/20 02:23:15;;;;;;;1.80;1.70;;;;;;;25.06;47.23;101116.13;5106259;28;20052;-74
2022/07/20 02:25:45;;;;;;;2.53;1.88;;;;;;;24.98;47.39;101106.78;5097841;28;20048;-74
2022/07/20 02:28:14;;;;;;;2.55;1.60;;;;;;;25.00;47.17;101104.41;5096847;28;20048;-74
2022/07/20 02:30:42;;;;;;;3.40;1.63;;;;;;;24.96;47.22;101109.94;5101787;28;20043;-74
2022/07/20 02:33:10;;;;;;;3.08;1.75;;;;;;;24.92;47.53;101106.25;5109294;28;20055;-74
2022/07/20 02:35:38;;;;;;;2.78;1.92;;;;;;;24.90;47.64;101108.59;5097941;28;20051;-74
2022/07/20 02:38:06;;;;;;;1.58;1.48;;;;;;;24.99;47.52;101110.38;5107380;28;20417;-74
2022/07/20 02:40:33;;;;;;;2.13;2.00;;;;;;;24.92;48.08;101105.44;5113351;28;20398;-74
2022/07/20 02:43:01;;;;;;;1.83;1.73;;;;;;;24.86;48.86;101107.72;5114662;28;20040;-74
2022/07/20 02:45:29;;;;;;;3.63;2.20;;;;;;;24.90;49.14;101100.22;5096058;28;20048;-74
2022/07/20 02:48:02;;;;;;;1.95;1.85;;;;;;;24.75;49.95;101101.84;5096143;28;20040;-74
2022/07/20 02:50:33;;;;;;;2.88;2.28;;;;;;;24.83;49.53;101097.25;5089301;28;20807;-74
2022/07/20 02:53:01;;;;;;;2.95;1.95;;;;;;;24.78;49.91;101103.13;5107613;28;20044;-74
2022/07/20 02:55:29;;;;;;;4.63;2.55;;;;;;;24.74;49.91;101100.25;5103172;28;20382;-72
2022/07/20 02:57:57;;;;;;;5.60;2.63;;;;;;;24.73;50.09;101109.00;5106414;28;20043;-72
2022/07/20 03:00:26;;;;;;;2.80;2.00;;;;;;;24.70;50.13;101114.13;5113337;28;20055;-72
2022/07/20 03:02:55;;;;;;;2.90;2.20;;;;;;;24.60;50.15;101097.91;5113338;28;20044;-72
2022/07/20 03:05:23;;;;;;;2.38;2.03;;;;;;;24.57;50.36;101104.22;5114116;28;20043;-72
2022/07/20 03:07:51;;;;;;;2.30;2.10;;;;;;;24.60;50.74;101105.50;5095247;28;20489;-72
2022/07/20 03:10:19;;;;;;;2.38;2.10;;;;;;;24.60;49.89;101111.91;5113348;28;20044;-72
2022/07/20 03:12:47;;;;;;;6.00;2.25;;;;;;;24.59;49.63;101104.69;5113290;28;20047;-73
2022/07/20 03:15:15;;;;;;;4.07;2.10;;;;;;;24.54;49.68;101108.56;5113766;28;20047;-73
2022/07/20 03:17:45;;;;;;;2.58;1.95;;;;;;;24.59;49.66;101110.28;5113823;28;20501;-73
2022/07/20 03:20:20;;;;;;;2.45;2.22;;;;;;;24.58;49.67;101117.03;5113022;28;20059;-73
2022/07/20 03:22:49;;;;;;;2.20;2.00;;;;;;;24.57;49.75;101118.22;5113804;28;20390;-73
2022/07/20 03:25:17;;;;;;;2.10;1.92;;;;;;;24.53;49.59;101122.91;5112884;28;20517;-73
2022/07/20 03:27:46;;;;;;;2.22;2.08;;;;;;;24.53;49.83;101122.91;5091871;28;20052;-73
2022/07/20 03:30:16;;;;;;;2.60;1.67;;;;;;;24.52;49.89;101126.88;5104279;28;20382;-74
2022/07/20 03:32:44;;;;;;;1.88;1.73;;;;;;;24.43;50.24;101127.91;5111779;28;20062;-73
2022/07/20 03:35:12;;;;;;;1.60;1.50;;;;;;;24.51;50.17;101128.88;5112414;28;20398;-74
2022/07/20 03:37:40;;;;;;;1.98;1.88;;;;;;;24.38;50.31;101128.16;5110737;28;20048;-73
2022/07/20 03:40:10;;;;;;;2.50;2.08;;;;;;;24.40;50.25;101131.41;5112206;28;20062;-73
2022/07/20 03:42:38;;;;;;;3.08;2.28;;;;;;;24.45;50.33;101132.31;5112688;28;20048;-74
2022/07/20 03:45:06;;;;;;;3.00;2.28;;;;;;;24.51;50.17;101136.44;5111509;28;20414;-73
2022/07/20 03:47:34;;;;;;;3.42;1.92;;;;;;;24.35;50.95;101139.28;5096678;28;20075;-73
2022/07/20 03:50:04;;;;;;;3.05;1.80;;;;;;;24.39;50.17;101127.00;5109514;28;20052;-73
2022/07/20 03:52:32;;;;;;;3.17;2.38;;;;;;;24.40;50.30;101134.19;5101158;28;20056;-73
2022/07/20 03:55:00;;;;;;;2.00;1.77;;;;;;;24.26;51.05;101131.06;5109895;28;20058;-73
2022/07/20 03:57:28;;;;;;;3.92;2.58;;;;;;;24.31;50.90;101136.38;5112339;28;20051;-73
2022/07/20 03:59:56;;;;;;;2.40;2.20;;;;;;;24.30;50.54;101140.38;5112082;28;20051;-74
2022/07/20 04:02:24;;;;;;;3.22;2.30;;;;;;;24.23;50.76;101137.38;5110918;28;20462;-73
2022/07/20 04:04:52;;;;;;;3.92;2.30;;;;;;;24.28;50.44;101142.69;5102097;28;20040;-74
2022/07/20 04:07:20;;;;;;;7.07;2.13;;;;;;;24.26;50.12;101134.69;5107135;28;20036;-73
2022/07/20 04:09:48;;;;;;;2.20;2.00;;;;;;;24.32;50.16;101132.41;5112138;28;20525;-74
2022/07/20 04:12:19;;;;;;;2.00;1.80;;;;;;;24.34;50.40;101137.66;5112058;28;20047;-74
2022/07/20 04:14:55;;;;;;;3.60;1.77;;;;;;;24.24;50.35;101139.81;5112929;28;20036;-74
2022/07/20 04:17:23;;;;;;;2.15;1.95;;;;;;;24.22;50.89;101136.56;5112191;28;20053;-73
2022/07/20 04:19:51;;;;;;;2.50;2.15;;;;;;;24.28;49.91;101139.88;5112206;28;20043;-74
2022/07/20 04:22:22;;;;;;;2.08;1.90;;;;;;;24.30;49.74;101140.38;5094645;28;20047;-73
2022/07/20 04:24:50;;;;;;;2.97;2.05;;;;;;;24.34;49.79;101141.25;5094683;28;20035;-73
2022/07/20 04:27:19;;;;;;;2.30;2.10;;;;;;;24.47;49.63;101152.34;5105423;28;20051;-76
2022/07/20 04:29:48;;;;;;;8.23;2.47;;;;;;;24.85;47.94;101144.47;5061225;28;20051;-77
2022/07/20 04:32:16;;;;;;;2.40;2.20;;;;;;;25.11;47.27;101157.84;5071632;28;20048;-77
2022/07/20 04:34:44;;;;;;;2.78;1.90;;;;;;;25.38;46.76;101160.81;5074033;28;20040;-77
2022/07/20 04:37:21;;;;;;;3.92;2.15;;;;;;;25.50;46.64;101157.03;5058555;28;20048;-77
2022/07/20 04:39:49;;;;;;;3.45;2.08;;;;;;;25.57;46.67;101164.81;5059297;28;20486;-77
2022/07/20 04:42:17;;;;;;;2.83;2.28;;;;;;;25.62;46.36;101148.50;5068962;28;20052;-77
2022/07/20 04:44:47;;;;;;;2.47;2.00;;;;;;;25.72;46.08;101152.69;5054569;28;20040;-77
2022/07/20 04:47:15;;;;;;;1.83;1.70;;;;;;;25.87;46.29;101162.22;5057843;28;20063;-77
2022/07/20 04:49:43;;;;;;;2.13;1.95;;;;;;;25.86;46.42;101154.16;5063628;28;20489;-77
2022/07/20 04:52:11;;;;;;;4.15;2.00;;;;;;;25.87;46.27;101159.41;5047609;28;20387;-76
2022/07/20 04:54:41;;;;;;;2.22;1.88;;;;;;;26.02;46.32;101166.09;5057212;28;20056;-77
2022/07/20 04:57:09;;;;;;;3.55;2.33;;;;;;;26.30;45.43;101170.59;5054457;28;20490;-76
2022/07/20 04:59:37;;;;;;;2.83;1.70;;;;;;;26.40;45.21;101169.16;5073519;28;20532;-77
2022/07/20 05:02:06;;;;;;;3.03;2.20;;;;;;;26.52;44.74;101164.53;5058582;28;20493;-76
2022/07/20 05:04:35;;;;;;;4.22;2.42;;;;;;;26.67;44.47;101166.38;5061762;28;20047;-76
2022/07/20 05:07:03;;;;;;;2.30;2.10;;;;;;;26.74;44.29;101173.28;5069440;28;20044;-80
2022/07/20 05:09:31;;;;;;;2.38;2.10;;;;;;;26.88;43.71;101175.50;5056868;28;20058;-79
2022/07/20 05:11:59;;;;;;;2.28;1.92;;;;;;;27.00;43.44;101175.31;5180756;22;20057;-80
2022/07/20 05:14:27;;;;;;;5.22;2.15;;;;;;;27.03;43.30;101174.53;5011845;28;20372;-80
2022/07/20 05:16:55;;;;;;;2.85;2.60;;;;;;;27.10;42.93;101180.28;5011010;28;20057;-79
2022/07/20 05:19:23;;;;;;;8.30;2.72;;;;;;;27.08;43.31;101177.03;5006619;28;20050;-79
2022/07/20 05:21:51;;;;;;;6.10;2.08;;;;;;;27.18;43.13;101183.97;5011887;28;20535;-80
2022/07/20 05:24:18;;;;;;;5.60;2.33;;;;;;;27.20;43.27;101177.97;5010797;28;20511;-79
2022/07/20 05:26:46;;;;;;;6.63;2.35;;;;;;;27.34;43.25;101181.00;5011943;28;20062;-79
2022/07/20 05:29:14;;;;;;;4.03;2.75;;;;;;;27.36;43.29;101181.41;5011618;28;20054;-79
2022/07/20 05:31:42;;;;;;;5.05;2.35;;;;;;;27.34;42.97;101180.16;5010453;28;20038;-79
2022/07/20 05:34:09;;;;;;;2.78;2.58;;;;;;;27.42;42.45;101172.66;5005352;28;20487;-79
2022/07/20 05:36:37;;;;;;;3.17;2.53;;;;;;;27.46;42.51;101177.09;5006819;28;20042;-80
2022/07/20 05:39:05;;;;;;;5.22;2.75;;;;;;;27.49;42.48;101172.72;5009323;28;21289;-79
2022/07/20 05:44:07;;;;;;;9.38;2.78;;;;;;;27.50;42.56;101183.59;5126057;27;20120;-81
2022/07/20 05:46:35;;;;;;;6.30;2.63;;;;;;;27.37;42.51;101185.84;5125865;28;20047;-82
2022/07/20 05:49:03;;;;;;;9.35;2.90;;;;;;;27.53;41.66;101176.41;5126135;28;20051;-82
2022/07/20 05:51:31;;;;;;;2.67;2.47;;;;;;;27.70;41.61;101188.28;5127849;28;20040;-83
2022/07/20 05:53:59;;;;;;;3.33;3.03;;;;;;;27.76;40.64;101184.72;5107735;28;20047;-82
2022/07/20 05:56:27;;;;;;;3.83;2.78;;;;;;;27.86;40.23;101191.66;5118405;28;20492;-82
2022/07/20 05:58:58;;;;;;;5.40;2.60;;;;;;;28.01;40.21;101191.81;5106065;28;20059;-82
2022/07/20 06:01:25;;;;;;;2.55;2.28;;;;;;;28.13;40.01;101180.28;5108919;28;20044;-82
2022/07/20 06:03:53;;;;;;;4.97;2.58;;;;;;;28.28;39.34;101191.69;5109036;28;20048;-82
2022/07/20 06:06:21;;;;;;;3.83;2.90;;;;;;;28.38;39.21;101188.16;5090342;28;20055;-82
2022/07/20 06:08:49;;;;;;;5.13;2.55;;;;;;;28.47;37.32;101187.81;5109134;28;20035;-82
2022/07/20 06:11:37;;;;;;;4.80;2.58;;;;;;;28.56;38.21;101181.88;5108597;28;20517;-83
2022/07/20 06:14:04;;;;;;;3.53;2.50;;;;;;;28.72;38.27;101186.41;5089985;28;20044;-83
2022/07/20 06:16:32;;;;;;;7.28;3.28;;;;;;;28.81;38.60;101184.88;5107957;28;20401;-83
2022/07/20 06:19:00;;;;;;;11.02;2.50;;;;;;;28.95;38.26;101183.38;5107531;28;20493;-83
2022/07/20 06:21:28;;;;;;;4.65;2.63;;;;;;;28.97;36.42;101187.41;5097240;28;20040;-82
2022/07/20 06:23:56;;;;;;;8.43;2.85;;;;;;;28.98;35.13;101188.19;5121180;28;20089;-83
2022/07/20 06:26:24;;;;;;;16.42;3.95;;;;;;;28.97;35.01;101187.41;5091240;28;20048;-83
2022/07/20 06:28:52;;;;;;;3.50;2.15;;;;;;;29.12;34.39;101181.03;5092810;28;20048;-83
2022/07/20 06:31:20;;;;;;;5.30;2.30;;;;;;;29.14;34.83;101187.91;5108936;28;20036;-86
2022/07/20 06:34:04;;;;;;;4.20;2.40;;;;;;;29.21;34.87;101179.47;5108617;28;20051;-86
2022/07/20 06:36:32;;;;;;;8.60;2.78;;;;;;;29.29;33.86;101190.78;5106355;28;20376;-86
2022/07/20 06:39:00;;;;;;;3.70;2.58;;;;;;;29.44;33.70;101183.19;5108436;28;20060;-86
2022/07/20 06:41:28;;;;;;;4.93;2.53;;;;;;;29.63;33.38;101182.88;5108291;28;20043;-86
2022/07/20 06:43:56;;;;;;;7.38;2.35;;;;;;;29.83;32.94;101190.19;5107927;28;20067;-86
2022/07/20 06:46:24;;;;;;;2.33;2.13;;;;;;;29.85;32.47;101184.94;5108083;28;20048;-86
2022/07/20 06:48:52;;;;;;;2.35;2.03;;;;;;;29.83;32.51;101190.19;5108146;28;20051;-86
2022/07/20 06:51:20;;;;;;;4.78;2.50;;;;;;;29.77;32.99;101179.28;5108082;28;20040;-87
2022/07/20 06:53:48;;;;;;;4.43;2.08;;;;;;;29.88;32.77;101184.16;5085802;28;20044;-86
2022/07/20 06:56:17;;;;;;;2.35;2.00;;;;;;;30.00;32.38;101185.81;5094473;28;20048;-86
2022/07/20 06:58:45;;;;;;;2.13;1.92;;;;;;;30.10;31.77;101184.25;5076308;28;20051;-87
2022/07/20 07:01:13;;;;;;;5.15;2.17;;;;;;;30.10;31.67;101176.56;5093859;28;20036;-85
2022/07/20 07:03:41;;;;;;;2.58;2.00;;;;;;;30.09;31.62;101180.59;5094455;28;20047;-86
2022/07/20 07:06:09;;;;;;;1.80;1.63;;;;;;;29.96;31.78;101177.31;5075801;28;20054;-86
2022/07/20 07:08:36;;;;;;;2.90;1.95;;;;;;;30.16;31.95;101191.09;5094436;28;20505;-86
2022/07/20 07:11:04;;;;;;;2.22;2.08;;;;;;;30.35;32.31;101184.22;5094203;28;20044;-86
2022/07/20 07:13:32;;;;;;;2.50;2.20;;;;;;;30.54;30.89;101183.03;5094167;28;20430;-86
2022/07/20 07:16:00;;;;;;;2.85;1.95;;;;;;;30.65;31.16;101176.56;5094274;28;20162;-86
2022/07/20 07:18:28;;;;;;;2.95;1.80;;;;;;;30.65;31.32;101177.34;5094030;28;20043;-86
2022/07/20 07:20:56;;;;;;;2.97;2.00;;;;;;;30.69;30.39;101174.56;5094084;28;20048;-86
2022/07/20 07:23:24;;;;;;;2.80;1.95;;;;;;;30.66;29.98;101178.97;5093603;28;20055;-86
2022/07/20 07:25:52;;;;;;;1.98;1.88;;;;;;;30.76;30.37;101176.56;5094144;28;20051;-87
2022/07/20 07:28:19;;;;;;;2.88;1.90;;;;;;;30.82;30.57;101166.47;5062146;28;20044;-87
2022/07/20 07:30:50;;;;;;;2.50;2.05;;;;;;;30.89;30.39;101171.31;5075766;28;20048;-87
2022/07/20 07:33:24;;;;;;;2.53;2.15;;;;;;;30.98;29.47;101172.47;5092915;28;20056;-86
2022/07/20 07:35:53;;;;;;;2.45;1.92;;;;;;;30.99;29.86;101173.31;5094034;28;20044;-88
2022/07/20 07:38:21;;;;;;;2.08;1.88;;;;;;;31.02;28.91;101174.50;5060906;28;20056;-87
2022/07/20 07:40:49;;;;;;;2.10;1.73;;;;;;;31.16;28.93;101165.97;5093641;28;20050;-86
2022/07/20 07:43:17;;;;;;;2.33;2.13;;;;;;;31.26;28.87;101169.16;5093239;28;20532;-87
2022/07/20 07:45:45;;;;;;;6.72;2.50;;;;;;;31.20;30.36;101161.13;5092518;28;20048;-86
2022/07/20 07:48:12;;;;;;;2.67;1.90;;;;;;;31.18;30.10;101174.03;5075800;28;20051;-86
2022/07/20 07:50:42;;;;;;;3.40;2.00;;;;;;;31.33;29.66;101169.16;5093274;28;20064;-87
2022/07/20 07:53:11;;;;;;;2.60;2.10;;;;;;;31.30;29.66;101167.97;5093351;28;20052;-87
2022/07/20 07:55:40;;;;;;;3.45;2.00;;;;;;;31.43;30.04;101173.16;5093322;28;20044;-88
2022/07/20 07:58:10;;;;;;;5.43;2.42;;;;;;;31.51;29.64;101158.56;5093649;28;20048;-89
2022/07/20 08:00:39;;;;;;;3.17;2.20;;;;;;;31.50;29.03;101158.97;5092957;28;20118;-83
2022/07/20 08:03:08;;;;;;;2.47;2.17;;;;;;;31.60;29.45;101148.81;5093328;28;20489;-89
2022/07/20 08:05:36;;;;;;;1.90;1.70;;;;;;;31.68;28.71;101160.91;5091681;28;20067;-86
2022/07/20 08:08:13;;;;;;;3.22;2.50;;;;;;;31.79;29.24;101161.63;5093408;28;20055;-89
2022/07/20 08:10:42;;;;;;;2.30;2.13;;;;;;;31.91;29.36;101161.19;5093582;28;20444;-86
2022/07/20 08:13:11;;;;;;;2.42;2.22;;;;;;;31.87;30.04;101159.59;5075097;28;20048;-86
2022/07/20 08:15:39;;;;;;;2.40;2.20;;;;;;;31.90;29.55;101159.56;5092987;28;20052;-90
2022/07/20 08:18:07;;;;;;;3.97;2.42;;;;;;;31.98;28.73;101159.50;5093090;28;20044;-92
2022/07/20 08:20:34;;;;;;;2.67;2.35;;;;;;;32.03;29.18;101159.91;5092919;28;20047;-93
2022/07/20 08:23:02;;;;;;;4.65;2.90;;;;;;;32.05;29.91;101153.78;5093401;28;20407;-91
2022/07/20 08:25:30;;;;;;;3.92;3.20;;;;;;;32.21;30.51;101163.78;5093164;28;20044;-84
2022/07/20 08:28:10;;;;;;;3.10;2.80;;;;;;;32.29;30.87;101163.31;5093795;28;20067;-68
2022/07/20 08:30:40;;;;;;;3.53;2.88;;;;;;;32.27;30.89;101156.47;5092328;28;20048;-80
2022/07/20 08:33:21;;;;;;;3.20;2.85;;;;;;;32.20;30.70;101156.53;5092413;28;20059;-80
2022/07/20 08:35:49;;;;;;;3.88;3.00;;;;;;;32.34;30.77;101159.22;5092655;28;20044;-80
2022/07/20 08:38:17;;;;;;;3.13;2.88;;;;;;;32.25;30.86;101153.25;5092637;28;20514;-80
2022/07/20 08:40:45;;;;;;;3.33;3.05;;;;;;;32.37;32.08;101152.72;5092445;28;20478;-80
2022/07/20 08:43:14;;;;;;;4.13;3.38;;;;;;;32.55;32.16;101165.97;5092422;28;20044;-80
2022/07/20 08:45:43;;;;;;;5.68;3.30;;;;;;;32.53;32.09;101163.53;5092329;28;20047;-80
2022/07/20 08:48:12;;;;;;;3.90;3.50;;;;;;;32.55;33.02;101161.06;5074255;28;20056;-80
2022/07/20 08:50:40;;;;;;;4.22;3.67;;;;;;;32.67;31.94;101156.09;5092065;28;20493;-80
2022/07/20 08:53:09;;;;;;;3.47;3.00;;;;;;;32.71;31.70;101156.88;5107324;28;20056;-80
2022/07/20 08:55:37;;;;;;;5.30;3.38;;;;;;;32.81;31.43;101158.81;5092167;28;20059;-80
2022/07/20 08:58:04;;;;;;;3.30;3.10;;;;;;;32.97;32.09;101152.56;5092338;28;20036;-80
2022/07/20 09:00:32;;;;;;;4.07;3.25;;;;;;;33.14;31.52;101154.81;5091942;28;20398;-80
2022/07/20 09:03:03;;;;;;;4.25;3.60;;;;;;;32.98;30.93;101148.50;5091772;28;20047;-80
2022/07/20 09:05:34;;;;;;;4.45;3.78;;;;;;;33.03;31.56;101146.44;5065729;28;20059;-77
2022/07/20 09:08:04;;;;;;;3.55;3.25;;;;;;;33.20;31.33;101159.59;5086617;28;20055;-77
2022/07/20 09:10:34;;;;;;;3.50;3.20;;;;;;;33.16;30.92;101156.00;5092037;28;20036;-77
2022/07/20 09:13:17;;;;;;;4.25;3.58;;;;;;;33.22;30.24;101159.97;5091876;28;20474;-78
2022/07/20 09:15:50;;;;;;;4.57;3.28;;;;;;;33.29;30.47;101161.91;5091979;28;20055;-78
2022/07/20 09:18:19;;;;;;;5.00;3.00;;;;;;;33.29;30.51;101166.78;5091291;28;20055;-78
2022/07/20 09:21:04;;;;;;;4.07;3.28;;;;;;;33.13;30.70;101153.22;5090997;28;20048;-77
2022/07/20 09:23:33;;;;;;;6.13;3.15;;;;;;;33.19;30.40;101157.97;5091566;28;20056;-78
2022/07/20 09:26:05;;;;;;;4.10;3.35;;;;;;;33.17;30.17;101151.16;5091779;28;20047;-78
2022/07/20 09:28:41;;;;;;;6.10;3.42;;;;;;;33.29;30.25;101152.59;5091402;28;20055;-77
2022/07/20 09:31:22;;;;;;;2.83;2.63;;;;;;;33.43;29.92;101152.38;5090893;28;20071;-77
2022/07/20 09:33:53;;;;;;;3.30;3.00;;;;;;;33.44;29.29;101154.03;5073366;28;20413;-77
2022/07/20 09:36:28;;;;;;;3.47;3.17;;;;;;;33.60;29.02;101149.75;5091722;28;20067;-77
2022/07/20 09:39:06;;;;;;;6.05;2.97;;;;;;;33.59;29.05;101145.31;5091810;28;20040;-78
2022/07/20 09:41:36;;;;;;;3.55;3.25;;;;;;;33.56;29.88;101146.97;5091440;28;20044;-77
2022/07/20 09:44:10;;;;;;;3.33;3.03;;;;;;;33.28;29.70;101143.28;5091181;28;20052;-77
2022/07/20 09:46:39;;;;;;;3.60;3.30;;;;;;;33.50;29.69;101138.16;5091548;28;20044;-77
2022/07/20 09:49:10;;;;;;;3.65;3.35;;;;;;;33.74;29.42;101132.53;5090377;28;20048;-77
2022/07/20 09:51:48;;;;;;;6.10;3.42;;;;;;;33.95;29.11;101138.31;5091316;28;20482;-77
2022/07/20 09:54:18;;;;;;;4.53;2.67;;;;;;;34.09;28.49;101135.25;5091844;28;20048;-78
2022/07/20 09:56:54;;;;;;;4.05;3.00;;;;;;;34.02;28.16;101133.31;5090929;28;20044;-78
2022/07/20 09:59:22;;;;;;;2.92;2.70;;;;;;;33.93;28.01;101118.88;5091544;28;20047;-78
2022/07/20 10:01:53;;;;;;;3.50;3.13;;;;;;;34.03;28.29;101134.94;5073301;28;20051;-78
2022/07/20 10:04:21;;;;;;;3.50;3.20;;;;;;;33.99;28.39;101130.53;5091378;28;20048;-78
2022/07/20 10:06:51;;;;;;;3.85;2.90;;;;;;;34.04;28.68;101130.06;5091394;28;20052;-77
2022/07/20 10:09:19;;;;;;;3.15;2.85;;;;;;;34.09;27.74;101138.09;5090907;28;20048;-77
2022/07/20 10:11:48;;;;;;;3.10;2.80;;;;;;;34.23;27.64;101130.56;5091153;28;20044;-77
2022/07/20 10:14:18;;;;;;;7.30;3.22;;;;;;;34.30;27.38;101138.94;5091350;28;20052;-77
2022/07/20 10:16:50;;;;;;;3.42;2.85;;;;;;;34.43;27.54;101127.78;5073270;28;20048;-78
2022/07/20 10:19:39;;;;;;;5.07;2.63;;;;;;;34.45;26.97;101131.78;5091139;28;20041;-78
2022/07/20 10:22:09;;;;;;;3.42;2.67;;;;;;;34.40;26.39;101131.50;5090919;28;20048;-77
2022/07/20 10:24:39;;;;;;;3.30;3.00;;;;;;;34.62;25.53;101125.41;5091199;28;20051;-77
2022/07/20 10:27:16;;;;;;;5.45;3.10;;;;;;;34.74;25.69;101127.63;5091536;28;20044;-77
2022/07/20 10:29:49;;;;;;;3.05;2.85;;;;;;;34.76;26.07;101121.50;5074893;28;20047;-77
2022/07/20 10:32:30;;;;;;;3.28;2.90;;;;;;;34.80;26.66;101117.34;5095199;28;20517;-77
2022/07/20 10:35:00;;;;;;;6.25;3.00;;;;;;;34.85;27.20;101111.16;5095188;28;20055;-78
2022/07/20 10:37:39;;;;;;;4.47;3.10;;;;;;;34.87;27.41;101110.72;5094995;28;20051;-77
2022/07/20 10:40:14;;;;;;;3.92;2.83;;;;;;;35.11;26.59;101102.94;5094965;28;20044;-77
2022/07/20 10:42:44;;;;;;;5.30;3.05;;;;;;;34.98;27.22;101110.47;5094793;28;20064;-77
2022/07/20 10:45:20;;;;;;;5.03;3.05;;;;;;;34.86;27.64;101109.13;5094823;28;20048;-78
2022/07/20 10:47:50;;;;;;;4.65;2.95;;;;;;;35.25;27.14;101103.84;5077060;28;20383;-77
2022/07/20 10:50:36;;;;;;;3.50;2.92;;;;;;;35.66;25.27;101106.63;5094259;28;20055;-77
2022/07/20 10:53:12;;;;;;;3.50;3.20;;;;;;;36.10;26.10;101103.50;5094513;28;20075;-77
2022/07/20 10:55:52;;;;;;;4.32;3.50;;;;;;;36.35;25.46;101096.38;5094718;28;20490;-76
2022/07/20 10:58:23;;;;;;;3.60;2.85;;;;;;;36.80;24.75;101100.44;5094183;28;20517;-77
2022/07/20 11:00:58;;;;;;;3.00;2.70;;;;;;;37.20;24.20;101104.97;5094881;28;20048;-74
2022/07/20 11:03:32;;;;;;;2.95;2.65;;;;;;;37.40;23.88;101084.78;5094804;28;20504;-75
2022/07/20 11:06:18;;;;;;;2.67;2.47;;;;;;;37.17;23.81;101095.28;5076766;28;20059;-75
2022/07/20 11:08:55;;;;;;;3.13;2.65;;;;;;;37.10;24.03;101101.19;5094807;28;20394;-75
2022/07/20 11:11:32;;;;;;;3.47;2.90;;;;;;;37.20;23.79;101087.84;5076272;28;20044;-75
2022/07/20 11:14:01;;;;;;;3.22;2.90;;;;;;;37.16;23.48;101087.97;5094792;28;20040;-75
2022/07/20 11:16:30;;;;;;;3.28;2.22;;;;;;;37.54;23.38;101077.00;5109413;28;20059;-75
2022/07/20 11:19:01;;;;;;;4.78;2.85;;;;;;;37.66;22.99;101090.50;5094451;28;20051;-75
2022/07/20 11:21:35;;;;;;;2.10;2.00;;;;;;;37.57;22.54;101076.09;5094405;28;20040;-75
2022/07/20 11:24:30;;;;;;;2.72;2.53;;;;;;;37.97;21.59;101075.59;5094082;28;20048;-74
2022/07/20 11:27:15;;;;;;;4.10;3.00;;;;;;;38.30;21.74;101080.19;5092784;28;20096;-80
2022/07/20 11:29:49;;;;;;;2.92;2.50;;;;;;;38.62;21.15;101077.44;5059689;28;20044;-76
2022/07/20 11:32:19;;;;;;;2.67;2.47;;;;;;;38.98;20.74;101076.06;5093510;28;20047;-75
2022/07/20 11:34:49;;;;;;;2.85;2.35;;;;;;;38.55;21.31;101073.59;5094057;28;20059;-75
2022/07/20 11:37:18;;;;;;;4.45;2.63;;;;;;;38.56;21.50;101069.47;5092788;28;20059;-75
2022/07/20 11:39:47;;;;;;;5.65;2.40;;;;;;;38.15;21.66;101069.28;5093342;28;20051;-75
2022/07/20 11:42:16;;;;;;;2.30;2.05;;;;;;;37.95;22.03;101066.69;5093172;28;20048;-75
2022/07/20 11:45:01;;;;;;;2.75;2.53;;;;;;;37.59;22.00;101062.19;5074885;28;20147;-75